Time;durP1;ratioP1;P1;durP2;ratioP2;P2;SDS_P1;SDS_P2;PMS_P1;PMS_P2;Temp;Humidity;BMP_temperature;BMP_pressure;BME280_temperature;BME280_humidity;BME280_pressure;Samples;Min_cycle;Max_cycle;Signal;HPM_P1;HPM_P2
2021/10/03 00:01:17;;;;;;;4.43;1.10;;;14.50;99.90;;;;;;5053306;28;20021;-82
2021/10/03 00:03:46;;;;;;;6.43;1.30;;;14.40;99.90;;;;;;5054610;28;20025;-83
2021/10/03 00:06:12;;;;;;;4.50;1.00;;;14.40;99.90;;;;;;5053210;28;20017;-83
2021/10/03 00:08:39;;;;;;;5.35;1.17;;;14.40;99.90;;;;;;5054394;28;20021;-82
2021/10/03 00:11:06;;;;;;;4.68;1.20;;;14.40;99.90;;;;;;5054638;28;20021;-82
2021/10/03 00:13:33;;;;;;;6.05;1.42;;;14.40;99.90;;;;;;5052889;28;20028;-83
2021/10/03 00:16:00;;;;;;;4.40;1.13;;;14.10;99.90;;;;;;5053702;28;20510;-82
2021/10/03 00:18:26;;;;;;;5.88;1.20;;;13.90;99.90;;;;;;5053047;28;20025;-82
2021/10/03 00:20:53;;;;;;;6.80;1.38;;;13.90;99.90;;;;;;5053020;28;20484;-83
2021/10/03 00:23:20;;;;;;;5.60;1.20;;;13.90;99.90;;;;;;5054246;28;20036;-83
2021/10/03 00:25:46;;;;;;;3.88;1.15;;;13.90;99.90;;;;;;5052901;28;20167;-83
2021/10/03 00:28:12;;;;;;;;;;;14.10;99.90;;;;;;5054554;28;20473;-83
2021/10/03 00:30:40;;;;;;;5.57;1.10;;;14.30;99.90;;;;;;5053844;28;19982;-83
2021/10/03 00:33:07;;;;;;;6.10;1.30;;;14.40;99.90;;;;;;5054181;28;20017;-83
2021/10/03 00:35:34;;;;;;;5.53;1.10;;;14.30;99.90;;;;;;5052650;28;20120;-83
2021/10/03 00:38:04;;;;;;;4.50;1.10;;;14.30;99.90;;;;;;5053952;28;20096;-83
2021/10/03 00:40:31;;;;;;;5.45;1.30;;;14.40;99.90;;;;;;5053886;28;20461;-83
2021/10/03 00:43:00;;;;;;;2.67;0.88;;;14.50;99.90;;;;;;5052435;28;20028;-82
2021/10/03 00:45:26;;;;;;;3.65;1.30;;;14.40;99.90;;;;;;5054045;28;20530;-83
2021/10/03 00:47:52;;;;;;;6.28;1.40;;;14.30;99.90;;;;;;5053781;28;20021;-82
2021/10/03 00:50:18;;;;;;;;;;;14.10;99.90;;;;;;5054167;28;20033;-83
2021/10/03 00:52:46;;;;;;;5.47;1.33;;;13.90;99.90;;;;;;5052357;28;19909;-83
2021/10/03 00:55:14;;;;;;;6.57;1.30;;;13.80;99.90;;;;;;5053615;28;20052;-82
2021/10/03 00:57:42;;;;;;;5.68;1.05;;;13.90;99.90;;;;;;5053577;28;20017;-83
2021/10/03 01:00:09;;;;;;;4.65;1.20;;;14.00;99.90;;;;;;5052277;28;20098;-82
2021/10/03 01:02:35;;;;;;;5.57;1.17;;;14.20;99.90;;;;;;5053617;28;20112;-83
2021/10/03 01:05:01;;;;;;;;;;;14.30;99.90;;;;;;5052642;28;20067;-82
2021/10/03 01:07:27;;;;;;;5.20;1.25;;;14.40;99.90;;;;;;5053078;28;19912;-82
2021/10/03 01:09:53;;;;;;;10.05;4.28;;;14.10;99.90;;;;;;5053204;28;20389;-83
2021/10/03 01:12:19;;;;;;;;;;;13.90;99.90;;;;;;5052963;28;20017;-83
2021/10/03 01:14:45;;;;;;;14.32;7.40;;;14.00;99.90;;;;;;5052345;28;19905;-83
2021/10/03 01:17:11;;;;;;;6.68;1.55;;;14.10;99.90;;;;;;5051370;28;20477;-82
2021/10/03 01:19:38;;;;;;;5.32;1.23;;;14.30;99.90;;;;;;5050973;28;20493;-82
2021/10/03 01:22:04;;;;;;;4.65;1.08;;;14.40;99.90;;;;;;5051228;28;20036;-82
2021/10/03 01:24:33;;;;;;;5.70;1.30;;;14.40;99.90;;;;;;5052794;28;20075;-82
2021/10/03 01:27:00;;;;;;;6.95;1.40;;;14.30;99.90;;;;;;5053004;28;20082;-82
2021/10/03 01:29:27;;;;;;;3.60;1.15;;;14.20;99.90;;;;;;5053382;28;20051;-82
2021/10/03 01:31:52;;;;;;;2.40;1.10;;;14.10;99.90;;;;;;5051554;28;20057;-82
2021/10/03 01:34:18;;;;;;;;;;;14.10;99.90;;;;;;5053605;28;20115;-82
2021/10/03 01:36:44;;;;;;;2.90;1.20;;;14.00;99.90;;;;;;5051822;28;19904;-82
2021/10/03 01:39:10;;;;;;;5.43;1.13;;;14.00;99.90;;;;;;5052997;28;20032;-82
2021/10/03 01:41:38;;;;;;;4.50;1.17;;;14.10;99.90;;;;;;5052998;28;20029;-82
2021/10/03 01:44:04;;;;;;;4.20;1.20;;;14.30;99.90;;;;;;5052977;28;20477;-82
2021/10/03 01:46:30;;;;;;;;;;;14.30;99.90;;;;;;5053426;28;20025;-82
2021/10/03 01:48:56;;;;;;;5.07;1.30;;;14.30;99.90;;;;;;5053020;28;19912;-83
2021/10/03 01:51:21;;;;;;;;;;;14.30;99.90;;;;;;5052062;28;20032;-82
2021/10/03 01:53:54;;;;;;;6.13;1.65;;;14.20;99.90;;;;;;5051614;28;19954;-82
2021/10/03 01:56:22;;;;;;;4.70;1.50;;;14.20;99.90;;;;;;5052948;28;20017;-83
2021/10/03 01:58:55;;;;;;;4.90;1.40;;;14.00;99.90;;;;;;5051609;28;20025;-82
2021/10/03 02:01:25;;;;;;;7.55;1.60;;;13.90;99.90;;;;;;5053041;28;20036;-83
2021/10/03 02:03:51;;;;;;;7.10;1.67;;;13.80;99.90;;;;;;5051305;28;20029;-82
2021/10/03 02:06:17;;;;;;;;;;;13.80;99.90;;;;;;5053235;28;20027;-82
2021/10/03 02:08:43;;;;;;;2.80;1.50;;;13.80;99.90;;;;;;5053036;28;19909;-82
2021/10/03 02:11:09;;;;;;;6.20;1.50;;;13.60;99.90;;;;;;5052887;28;20025;-82
2021/10/03 02:13:35;;;;;;;;;;;13.70;99.90;;;;;;5053449;28;20044;-82
2021/10/03 02:16:02;;;;;;;4.70;1.73;;;13.90;99.90;;;;;;5052135;28;20372;-82
2021/10/03 02:18:39;;;;;;;5.13;1.80;;;14.00;99.90;;;;;;5051428;28;20017;-83
2021/10/03 02:21:07;;;;;;;5.68;1.75;;;14.00;99.90;;;;;;5051162;28;20136;-82
2021/10/03 02:23:34;;;;;;;6.03;2.05;;;14.10;99.90;;;;;;5051387;28;20068;-82
2021/10/03 02:26:00;;;;;;;8.48;2.20;;;14.00;99.90;;;;;;5051349;28;20053;-82
2021/10/03 02:28:26;;;;;;;;;;;14.00;99.90;;;;;;5051779;28;20487;-83
2021/10/03 02:30:55;;;;;;;5.63;1.65;;;14.00;99.90;;;;;;5050983;28;19916;-83
2021/10/03 02:33:21;;;;;;;6.18;1.73;;;14.10;99.90;;;;;;5052540;28;20017;-83
2021/10/03 02:35:47;;;;;;;;;;;13.90;99.90;;;;;;5051653;28;20025;-83
2021/10/03 02:38:16;;;;;;;4.10;1.10;;;14.10;99.90;;;;;;5054162;28;19908;-82
2021/10/03 02:40:44;;;;;;;4.40;1.35;;;14.20;99.90;;;;;;5054917;28;20112;-82
2021/10/03 02:43:11;;;;;;;3.10;1.20;;;14.20;99.90;;;;;;5056055;28;20028;-82
2021/10/03 02:45:43;;;;;;;5.55;1.70;;;14.00;99.90;;;;;;5056238;28;20025;-83
2021/10/03 02:48:09;;;;;;;6.45;1.70;;;14.00;99.90;;;;;;5054518;28;20060;-82
2021/10/03 02:50:35;;;;;;;5.78;1.58;;;13.80;99.90;;;;;;5056044;28;20025;-82
2021/10/03 02:53:05;;;;;;;5.03;1.40;;;13.90;99.90;;;;;;5056084;28;20025;-82
2021/10/03 02:55:34;;;;;;;4.88;1.35;;;14.00;99.90;;;;;;5054387;28;20462;-82
2021/10/03 02:57:59;;;;;;;5.30;1.40;;;14.00;99.90;;;;;;5055785;28;20017;-82
2021/10/03 03:00:25;;;;;;;;;;;14.20;99.90;;;;;;5054903;28;20036;-82
2021/10/03 03:02:51;;;;;;;9.52;1.35;;;14.20;99.90;;;;;;5055130;28;19905;-83
2021/10/03 03:05:16;;;;;;;3.67;1.20;;;14.20;99.90;;;;;;5054160;28;20087;-82
2021/10/03 03:07:42;;;;;;;7.20;1.60;;;14.10;99.90;;;;;;5055692;28;20499;-82
2021/10/03 03:10:09;;;;;;;5.43;1.38;;;13.90;99.90;;;;;;5054094;28;20397;-82
2021/10/03 03:12:36;;;;;;;5.55;1.95;;;13.90;99.90;;;;;;5054124;28;20032;-82
2021/10/03 03:15:07;;;;;;;6.63;1.60;;;13.80;99.90;;;;;;5055421;28;20118;-83
2021/10/03 03:17:32;;;;;;;8.00;2.08;;;13.80;99.90;;;;;;5055451;28;20520;-82
2021/10/03 03:19:58;;;;;;;;;;;13.60;99.90;;;;;;5054616;28;20025;-82
2021/10/03 03:22:25;;;;;;;;;;;13.50;99.90;;;;;;5054503;28;20364;-82
2021/10/03 03:24:52;;;;;;;4.90;1.42;;;13.60;99.90;;;;;;5054049;28;19904;-82
2021/10/03 03:27:17;;;;;;;7.03;1.50;;;13.70;99.90;;;;;;5053960;28;20374;-83
2021/10/03 03:29:43;;;;;;;;;;;13.80;99.90;;;;;;5053907;28;20059;-82
2021/10/03 03:32:09;;;;;;;3.63;1.38;;;13.80;99.90;;;;;;5055261;28;19905;-82
2021/10/03 03:34:35;;;;;;;4.70;1.33;;;13.90;99.90;;;;;;5054944;28;20031;-82
2021/10/03 03:37:01;;;;;;;2.67;0.90;;;14.00;99.90;;;;;;5054992;28;20036;-82
2021/10/03 03:39:26;;;;;;;;;;;14.00;99.90;;;;;;5053690;28;20025;-82
2021/10/03 03:41:52;;;;;;;5.25;1.52;;;14.00;99.90;;;;;;5054167;28;20345;-82
2021/10/03 03:44:18;;;;;;;2.63;1.08;;;13.80;99.90;;;;;;5054638;28;20025;-82
2021/10/03 03:46:44;;;;;;;3.15;1.08;;;13.70;99.90;;;;;;5054918;28;20102;-82
2021/10/03 03:49:09;;;;;;;5.35;1.20;;;13.80;99.90;;;;;;5053575;28;20029;-83
2021/10/03 03:51:35;;;;;;;1.95;0.98;;;13.80;99.90;;;;;;5053453;28;20036;-82
2021/10/03 03:54:01;;;;;;;3.83;1.30;;;13.60;99.90;;;;;;5054805;28;20017;-82
2021/10/03 03:56:27;;;;;;;3.20;1.15;;;13.50;99.90;;;;;;5054770;28;20021;-82
2021/10/03 03:58:52;;;;;;;4.70;1.50;;;13.50;99.90;;;;;;5053457;28;20032;-82
2021/10/03 04:01:20;;;;;;;3.60;1.40;;;13.40;99.90;;;;;;5054652;28;20051;-81
2021/10/03 04:03:46;;;;;;;7.15;1.33;;;13.40;99.90;;;;;;5053295;28;20116;-82
2021/10/03 04:06:12;;;;;;;;;;;13.30;99.90;;;;;;5054917;28;20121;-82
2021/10/03 04:08:38;;;;;;;4.82;1.10;;;13.30;99.90;;;;;;5054547;28;19912;-82
2021/10/03 04:11:04;;;;;;;4.72;1.10;;;13.20;99.90;;;;;;5054383;28;20029;-81
2021/10/03 04:13:31;;;;;;;;;;;13.40;99.90;;;;;;5054864;28;20393;-81
2021/10/03 04:15:57;;;;;;;5.18;1.10;;;13.40;99.90;;;;;;5053062;28;19904;-82
2021/10/03 04:18:23;;;;;;;4.45;1.10;;;13.40;99.90;;;;;;5054387;28;20112;-82
2021/10/03 04:20:49;;;;;;;3.15;1.00;;;13.50;99.90;;;;;;5054269;28;20485;-82
2021/10/03 04:23:14;;;;;;;2.67;0.95;;;13.60;99.90;;;;;;5054141;28;20057;-81
2021/10/03 04:25:40;;;;;;;4.63;1.20;;;13.50;99.90;;;;;;5052694;28;20548;-81
2021/10/03 04:28:06;;;;;;;;;;;13.50;99.90;;;;;;5054058;28;20023;-81
2021/10/03 04:30:32;;;;;;;3.97;1.02;;;13.50;99.90;;;;;;5051995;28;20296;-81
2021/10/03 04:32:58;;;;;;;5.10;1.10;;;13.50;99.90;;;;;;5052047;28;20450;-81
2021/10/03 04:35:23;;;;;;;3.20;1.05;;;13.40;99.90;;;;;;5053729;28;20040;-81
2021/10/03 04:37:49;;;;;;;8.02;1.30;;;13.50;99.90;;;;;;5053918;28;20028;-81
2021/10/03 04:40:15;;;;;;;3.42;0.93;;;13.50;99.90;;;;;;5053924;28;20104;-81
2021/10/03 04:42:41;;;;;;;8.68;1.50;;;13.70;99.90;;;;;;5053908;28;20052;-81
2021/10/03 04:45:07;;;;;;;5.40;1.25;;;13.70;99.90;;;;;;5052541;28;20079;-81
2021/10/03 04:47:33;;;;;;;6.40;1.50;;;13.50;99.90;;;;;;5053728;28;20059;-81
2021/10/03 04:50:00;;;;;;;;;;;13.40;99.90;;;;;;5052802;28;20052;-81
2021/10/03 04:52:26;;;;;;;6.53;1.40;;;13.30;99.90;;;;;;5053710;28;19912;-81
2021/10/03 04:54:53;;;;;;;5.85;1.17;;;13.20;99.90;;;;;;5053646;28;20021;-81
2021/10/03 04:57:19;;;;;;;2.10;0.90;;;13.10;99.90;;;;;;5053865;28;20025;-82
2021/10/03 04:59:45;;;;;;;2.50;1.10;;;13.10;99.90;;;;;;5053378;28;20013;-80
2021/10/03 05:02:11;;;;;;;6.35;1.20;;;13.00;99.90;;;;;;5053052;28;20131;-81
2021/10/03 05:04:37;;;;;;;2.33;1.13;;;13.10;99.90;;;;;;5053414;28;20025;-81
2021/10/03 05:07:03;;;;;;;5.97;1.33;;;13.10;99.90;;;;;;5053938;28;20035;-81
2021/10/03 05:09:29;;;;;;;;;;;13.10;99.90;;;;;;5054348;28;20028;-80
2021/10/03 05:11:55;;;;;;;6.00;1.20;;;13.10;99.90;;;;;;5052979;28;20363;-81
2021/10/03 05:14:21;;;;;;;10.20;1.48;;;13.00;99.90;;;;;;5053152;28;20025;-81
2021/10/03 05:16:47;;;;;;;3.40;0.98;;;13.00;99.90;;;;;;5051783;28;20430;-80
2021/10/03 05:19:12;;;;;;;5.32;1.15;;;12.90;99.90;;;;;;5053286;28;20109;-81
2021/10/03 05:21:38;;;;;;;6.53;1.33;;;12.90;99.90;;;;;;5053281;28;20440;-81
2021/10/03 05:24:05;;;;;;;4.90;1.08;;;12.90;99.90;;;;;;5051816;28;20025;-81
2021/10/03 05:26:31;;;;;;;6.57;1.17;;;12.80;99.90;;;;;;5051269;28;20029;-81
2021/10/03 05:28:56;;;;;;;7.03;1.38;;;12.80;99.90;;;;;;5051209;28;20033;-80
2021/10/03 05:31:23;;;;;;;7.70;1.20;;;12.70;99.90;;;;;;5052186;28;20041;-81
2021/10/03 05:33:50;;;;;;;4.43;1.08;;;12.70;99.90;;;;;;5050838;28;20029;-81
2021/10/03 05:36:16;;;;;;;5.30;1.27;;;12.60;99.90;;;;;;5053147;28;20018;-81
2021/10/03 05:38:42;;;;;;;;;;;12.80;99.90;;;;;;5053320;28;20028;-80
2021/10/03 05:41:08;;;;;;;4.97;1.02;;;12.80;99.90;;;;;;5053053;28;19904;-81
2021/10/03 05:43:37;;;;;;;;;;;12.80;99.90;;;;;;5052171;28;20029;-81
2021/10/03 05:46:06;;;;;;;5.63;0.98;;;12.80;99.90;;;;;;5051551;28;19990;-81
2021/10/03 05:48:33;;;;;;;7.22;1.35;;;12.80;99.90;;;;;;5051555;28;20116;-82
2021/10/03 05:51:00;;;;;;;6.30;1.17;;;12.70;99.90;;;;;;5052646;28;20047;-81
2021/10/03 05:53:26;;;;;;;4.70;1.08;;;12.80;99.90;;;;;;5052995;28;20029;-80
2021/10/03 05:55:52;;;;;;;7.13;1.35;;;12.80;99.90;;;;;;5052981;28;20047;-81
2021/10/03 05:58:18;;;;;;;;;;;12.80;99.90;;;;;;5053380;28;20055;-80
2021/10/03 06:00:44;;;;;;;7.82;1.20;;;12.70;99.90;;;;;;5052846;28;19940;-80
2021/10/03 06:03:09;;;;;;;4.10;1.20;;;12.60;99.90;;;;;;5052865;28;20096;-80
2021/10/03 06:05:35;;;;;;;8.60;1.40;;;12.60;99.90;;;;;;5052852;28;20100;-80
2021/10/03 06:08:01;;;;;;;8.57;1.35;;;12.60;99.90;;;;;;5052866;28;20029;-81
2021/10/03 06:10:27;;;;;;;5.57;1.30;;;12.50;99.90;;;;;;5051438;28;20450;-80
2021/10/03 06:12:52;;;;;;;7.50;1.15;;;12.50;99.90;;;;;;5052660;28;20017;-80
2021/10/03 06:15:18;;;;;;;7.05;1.15;;;12.60;99.90;;;;;;5056688;28;20064;-81
2021/10/03 06:17:44;;;;;;;6.72;1.38;;;12.40;99.90;;;;;;5056645;28;20542;-81
2021/10/03 06:20:10;;;;;;;;;;;12.40;99.90;;;;;;5057085;28;20424;-80
2021/10/03 06:22:36;;;;;;;7.60;0.95;;;12.40;99.90;;;;;;5056306;28;19911;-81
2021/10/03 06:25:02;;;;;;;5.95;0.98;;;12.40;99.90;;;;;;5056234;28;20096;-82
2021/10/03 06:27:28;;;;;;;6.55;1.38;;;12.40;99.90;;;;;;5055091;28;20443;-81
2021/10/03 06:29:54;;;;;;;5.82;1.00;;;12.40;99.90;;;;;;5055771;28;20033;-82
2021/10/03 06:32:20;;;;;;;5.22;1.15;;;12.50;99.90;;;;;;5056327;28;20385;-81
2021/10/03 06:34:46;;;;;;;5.43;0.98;;;12.60;99.90;;;;;;5055638;28;20017;-81
2021/10/03 06:37:12;;;;;;;5.72;1.17;;;12.60;99.90;;;;;;5055294;28;20032;-81
2021/10/03 06:39:38;;;;;;;8.52;1.40;;;12.50;99.90;;;;;;5054284;28;20448;-81
2021/10/03 06:42:04;;;;;;;7.88;1.35;;;12.50;99.90;;;;;;5055408;28;20374;-80
2021/10/03 06:44:29;;;;;;;;;;;12.40;99.90;;;;;;5056469;28;20075;-81
2021/10/03 06:46:55;;;;;;;6.53;0.98;;;12.50;99.90;;;;;;5056343;28;19905;-81
2021/10/03 06:49:21;;;;;;;5.70;1.30;;;12.60;99.90;;;;;;5056373;28;20028;-81
2021/10/03 06:51:47;;;;;;;8.38;1.20;;;12.60;99.90;;;;;;5055812;28;20029;-81
2021/10/03 06:54:12;;;;;;;7.13;1.13;;;12.60;99.90;;;;;;5056523;28;20021;-81
2021/10/03 06:56:38;;;;;;;6.45;1.55;;;12.40;99.90;;;;;;5055920;28;20492;-81
2021/10/03 06:59:04;;;;;;;8.18;1.38;;;12.30;99.90;;;;;;5055833;28;20021;-81
2021/10/03 07:01:30;;;;;;;9.85;1.35;;;12.30;99.90;;;;;;5054502;28;20122;-80
2021/10/03 07:03:56;;;;;;;5.60;1.10;;;12.30;99.90;;;;;;5055837;28;20501;-81
2021/10/03 07:06:22;;;;;;;4.03;1.00;;;12.40;99.90;;;;;;5055730;28;20032;-81
2021/10/03 07:08:47;;;;;;;2.88;0.95;;;12.30;99.90;;;;;;5054375;28;20029;-80
2021/10/03 07:11:13;;;;;;;3.63;0.82;;;12.20;99.90;;;;;;5055519;28;20029;-80
2021/10/03 07:13:39;;;;;;;5.22;1.08;;;12.20;99.90;;;;;;5055572;28;20100;-80
2021/10/03 07:16:05;;;;;;;5.43;1.15;;;12.20;99.90;;;;;;5055540;28;20396;-80
2021/10/03 07:18:30;;;;;;;7.07;1.20;;;12.20;99.90;;;;;;5054219;28;20025;-80
2021/10/03 07:20:56;;;;;;;5.60;1.13;;;12.00;99.90;;;;;;5054177;28;20443;-80
2021/10/03 07:23:22;;;;;;;6.93;0.98;;;12.00;99.90;;;;;;5055129;28;20048;-80
2021/10/03 07:25:48;;;;;;;4.85;1.10;;;12.00;99.90;;;;;;5055885;28;20021;-80
2021/10/03 07:28:14;;;;;;;6.35;1.13;;;12.00;99.90;;;;;;5055268;28;20037;-81
2021/10/03 07:30:40;;;;;;;7.32;1.30;;;11.90;99.90;;;;;;5054897;28;20041;-79
2021/10/03 07:33:06;;;;;;;5.53;1.17;;;12.00;99.90;;;;;;5053934;28;20553;-80
2021/10/03 07:35:32;;;;;;;4.78;1.23;;;12.10;99.90;;;;;;5054105;28;20037;-80
2021/10/03 07:37:57;;;;;;;;;;;12.30;99.90;;;;;;5055383;28;20040;-79
2021/10/03 07:40:24;;;;;;;6.22;1.20;;;12.40;99.90;;;;;;5053635;28;19970;-81
2021/10/03 07:42:49;;;;;;;3.88;1.08;;;12.40;99.90;;;;;;5053642;28;20028;-79
2021/10/03 07:45:15;;;;;;;9.57;1.38;;;12.50;99.90;;;;;;5054904;28;20023;-80
2021/10/03 07:47:41;;;;;;;7.55;1.80;;;12.60;99.90;;;;;;5054890;28;20043;-80
2021/10/03 07:50:07;;;;;;;;;;;12.70;99.90;;;;;;5055155;28;20416;-80
2021/10/03 07:52:33;;;;;;;8.70;1.50;;;13.00;99.90;;;;;;5055151;28;20420;-79
2021/10/03 07:54:59;;;;;;;;;;;13.10;99.90;;;;;;5055171;28;20060;-79
2021/10/03 07:57:24;;;;;;;8.35;1.30;;;13.40;99.90;;;;;;5054684;28;19939;-80
2021/10/03 07:59:50;;;;;;;;;;;13.30;99.90;;;;;;5055445;28;20354;-79
2021/10/03 08:02:16;;;;;;;5.75;1.10;;;13.20;99.90;;;;;;5054619;28;19912;-79
2021/10/03 08:04:42;;;;;;;4.28;1.13;;;13.20;99.90;;;;;;5053367;28;20029;-80
2021/10/03 08:07:07;;;;;;;;;;;13.40;99.90;;;;;;5055106;28;20512;-80
2021/10/03 08:09:33;;;;;;;5.15;1.30;;;14.10;99.90;;;;;;5054584;28;19991;-80
2021/10/03 08:11:59;;;;;;;7.25;1.38;;;14.40;99.90;;;;;;5054467;28;20130;-80
2021/10/03 08:14:24;;;;;;;;;;;14.30;99.90;;;;;;5054839;28;20021;-80
2021/10/03 08:16:50;;;;;;;6.80;1.30;;;13.80;99.90;;;;;;5054753;28;19927;-80
2021/10/03 08:19:16;;;;;;;;;;;13.60;99.90;;;;;;5053242;28;20116;-80
2021/10/03 08:21:42;;;;;;;5.70;1.85;;;13.60;99.90;;;;;;5054193;28;19905;-80
2021/10/03 08:24:08;;;;;;;6.10;1.30;;;14.30;99.90;;;;;;5052918;28;20033;-80
2021/10/03 08:26:35;;;;;;;5.40;1.38;;;14.80;99.90;;;;;;5054224;28;20065;-80
2021/10/03 08:29:01;;;;;;;9.60;1.80;;;15.00;99.90;;;;;;5054143;28;20489;-79
2021/10/03 08:31:27;;;;;;;9.35;2.05;;;15.70;99.90;;;;;;5052350;28;20531;-80
2021/10/03 08:33:52;;;;;;;3.65;1.30;;;15.90;99.90;;;;;;5054115;28;20029;-79
2021/10/03 08:36:18;;;;;;;4.20;1.45;;;16.40;99.90;;;;;;5053277;28;20481;-79
2021/10/03 08:38:44;;;;;;;5.00;1.40;;;16.40;99.90;;;;;;5053854;28;20090;-79
2021/10/03 08:41:10;;;;;;;6.75;1.52;;;17.00;99.90;;;;;;5054222;28;20537;-79
2021/10/03 08:43:37;;;;;;;5.38;1.40;;;17.50;99.90;;;;;;5053767;28;20040;-80
2021/10/03 08:46:03;;;;;;;6.03;1.38;;;18.00;99.90;;;;;;5053787;28;20031;-80
2021/10/03 08:48:29;;;;;;;4.75;1.40;;;17.40;99.90;;;;;;5053776;28;20055;-78
2021/10/03 08:50:55;;;;;;;6.65;1.45;;;17.40;99.90;;;;;;5053611;28;20028;-79
2021/10/03 08:53:23;;;;;;;4.22;1.45;;;18.30;99.90;;;;;;5053669;28;20021;-79
2021/10/03 08:55:50;;;;;;;4.38;1.45;;;18.90;99.90;;;;;;5052402;28;20471;-78
2021/10/03 08:58:15;;;;;;;5.53;1.50;;;20.60;99.90;;;;;;5052255;28;20043;-78
2021/10/03 09:00:49;;;;;;;6.78;1.67;;;20.30;99.90;;;;;;5052236;28;20497;-79
2021/10/03 09:03:17;;;;;;;4.82;1.65;;;22.10;99.90;;;;;;5053530;28;20397;-80
2021/10/03 09:05:49;;;;;;;5.00;1.50;;;22.20;98.20;;;;;;5052115;28;20489;-78
2021/10/03 09:08:16;;;;;;;6.75;1.42;;;23.30;93.90;;;;;;5053444;28;20025;-80
2021/10/03 09:10:48;;;;;;;9.52;1.85;;;24.70;92.50;;;;;;5053515;28;20056;-79
2021/10/03 09:13:15;;;;;;;5.57;1.70;;;22.70;86.10;;;;;;5053515;28;20025;-80
2021/10/03 09:15:41;;;;;;;4.88;1.52;;;24.10;87.80;;;;;;5053587;28;20043;-80
2021/10/03 09:18:07;;;;;;;7.40;1.58;;;23.80;87.50;;;;;;5053255;28;20024;-81
2021/10/03 09:20:34;;;;;;;5.10;1.55;;;23.00;85.80;;;;;;5053279;28;20024;-80
2021/10/03 09:23:02;;;;;;;4.38;1.55;;;24.50;83.30;;;;;;5053308;28;20025;-79
2021/10/03 09:25:48;;;;;;;7.85;1.83;;;24.80;78.60;;;;;;5052111;28;20098;-80
2021/10/03 09:28:16;;;;;;;5.10;1.52;;;24.30;77.60;;;;;;5051649;28;20063;-79
2021/10/03 09:31:14;;;;;;;7.65;1.80;;;24.20;75.30;;;;;;5051664;28;20049;-79
2021/10/03 09:33:49;;;;;;;9.95;1.77;;;24.50;71.60;;;;;;5051561;28;20044;-79
2021/10/03 09:36:19;;;;;;;4.85;1.60;;;24.90;73.30;;;;;;5053178;28;20027;-80
2021/10/03 09:38:57;;;;;;;9.40;1.80;;;25.10;70.90;;;;;;5053233;28;20025;-80
2021/10/03 09:41:28;;;;;;;9.93;1.85;;;25.90;72.20;;;;;;5051507;28;20029;-80
2021/10/03 09:43:57;;;;;;;6.25;1.70;;;26.70;66.70;;;;;;5051531;28;20408;-80
2021/10/03 09:46:41;;;;;;;6.97;1.70;;;28.00;67.20;;;;;;5053385;28;20384;-80
2021/10/03 09:49:09;;;;;;;;;;;26.70;66.10;;;;;;5057840;28;20492;-81
2021/10/03 09:51:36;;;;;;;6.13;1.58;;;27.90;63.60;;;;;;5057272;28;20348;-80
2021/10/03 09:54:04;;;;;;;7.00;1.60;;;27.70;59.10;;;;;;5055794;28;20028;-80
2021/10/03 09:56:33;;;;;;;7.32;1.75;;;25.10;64.60;;;;;;5055721;28;20518;-81
2021/10/03 09:59:04;;;;;;;6.65;1.70;;;26.70;65.40;;;;;;5056973;28;20072;-82
2021/10/03 10:01:31;;;;;;;6.60;1.50;;;28.40;64.20;;;;;;5055382;28;20489;-80
2021/10/03 10:03:57;;;;;;;6.18;1.80;;;27.10;61.40;;;;;;5055547;28;20018;-81
2021/10/03 10:06:23;;;;;;;5.85;1.75;;;28.70;59.30;;;;;;5055531;28;20036;-81
2021/10/03 10:08:55;;;;;;;6.97;1.70;;;27.70;59.00;;;;;;5056842;28;20092;-80
2021/10/03 10:11:32;;;;;;;11.40;2.25;;;28.60;58.70;;;;;;5056947;28;20060;-80
2021/10/03 10:14:02;;;;;;;7.10;1.88;;;28.80;59.30;;;;;;5056731;28;20100;-80
2021/10/03 10:16:31;;;;;;;4.80;1.50;;;28.20;58.40;;;;;;5056656;28;20393;-81
2021/10/03 10:19:34;;;;;;;7.55;1.63;;;28.90;57.00;;;;;;5056639;28;20370;-80
2021/10/03 10:22:12;;;;;;;;;;;26.10;59.70;;;;;;5057209;28;20076;-81
2021/10/03 10:24:44;;;;;;;10.07;2.38;;;29.20;58.30;;;;;;5056451;28;19943;-80
2021/10/03 10:27:29;;;;;;;6.80;2.00;;;31.00;54.30;;;;;;5056380;28;20075;-80
2021/10/03 10:30:11;;;;;;;6.95;1.70;;;32.40;53.00;;;;;;5056114;28;20505;-79
2021/10/03 10:32:56;;;;;;;4.55;1.40;;;31.30;51.30;;;;;;5054831;28;20025;-79
2021/10/03 10:35:27;;;;;;;6.30;1.80;;;27.80;53.00;;;;;;5051376;28;20503;-78
2021/10/03 10:37:55;;;;;;;7.35;1.92;;;29.60;52.00;;;;;;5056147;28;20021;-79
2021/10/03 10:40:21;;;;;;;4.47;1.55;;;28.40;52.90;;;;;;5056158;28;20032;-79
2021/10/03 10:43:07;;;;;;;5.88;1.70;;;28.10;54.60;;;;;;5056131;28;20025;-79
2021/10/03 10:45:43;;;;;;;6.47;1.77;;;29.40;52.90;;;;;;5053326;28;20025;-79
2021/10/03 10:48:09;;;;;;;7.53;1.70;;;28.80;53.00;;;;;;5056187;28;20021;-79
2021/10/03 10:50:58;;;;;;;6.15;1.70;;;28.70;53.10;;;;;;5054669;28;20040;-79
2021/10/03 10:53:30;;;;;;;6.85;1.73;;;29.20;50.50;;;;;;5055291;28;20453;-79
2021/10/03 10:56:11;;;;;;;4.05;1.33;;;30.60;51.10;;;;;;5055916;28;20071;-78
2021/10/03 10:58:59;;;;;;;5.25;1.60;;;26.60;49.90;;;;;;5055407;28;20094;-79
2021/10/03 11:01:31;;;;;;;5.95;2.00;;;28.60;52.10;;;;;;5055476;28;20508;-79
2021/10/03 11:04:02;;;;;;;4.63;1.88;;;30.40;49.00;;;;;;5055693;28;20487;-79
2021/10/03 11:06:27;;;;;;;4.57;1.50;;;30.20;50.30;;;;;;5054293;28;20393;-78
2021/10/03 11:09:09;;;;;;;6.55;1.67;;;29.40;49.20;;;;;;5055556;28;20029;-79
2021/10/03 11:11:59;;;;;;;6.43;1.70;;;28.60;49.90;;;;;;5055520;28;20385;-79
2021/10/03 11:14:27;;;;;;;6.82;1.65;;;28.30;48.70;;;;;;5051277;28;20083;-79
2021/10/03 11:17:02;;;;;;;6.00;1.60;;;29.60;49.90;;;;;;5055441;28;20032;-79
2021/10/03 11:19:42;;;;;;;4.50;1.70;;;30.80;48.70;;;;;;5053774;28;20078;-78
2021/10/03 11:22:12;;;;;;;4.55;1.73;;;30.00;49.50;;;;;;5055392;28;20034;-79
2021/10/03 11:24:48;;;;;;;9.52;1.90;;;31.50;47.30;;;;;;5055540;28;20025;-79
2021/10/03 11:27:18;;;;;;;4.95;1.63;;;30.30;49.00;;;;;;5054088;28;20033;-79
2021/10/03 11:29:47;;;;;;;4.88;1.80;;;31.40;47.70;;;;;;5055005;28;20072;-79
2021/10/03 11:32:16;;;;;;;6.25;1.60;;;30.00;46.70;;;;;;5055765;28;20029;-78
2021/10/03 11:34:45;;;;;;;4.60;1.60;;;26.60;52.90;;;;;;5055129;28;20074;-78
2021/10/03 11:37:30;;;;;;;6.68;1.52;;;28.80;49.00;;;;;;5053700;28;20082;-78
2021/10/03 11:40:11;;;;;;;5.78;1.65;;;24.90;51.90;;;;;;5053811;28;20170;-78
2021/10/03 11:42:40;;;;;;;6.22;1.83;;;28.20;51.30;;;;;;5053514;28;20512;-79
2021/10/03 11:45:25;;;;;;;6.97;1.80;;;31.10;47.70;;;;;;5054979;28;20025;-77
2021/10/03 11:48:00;;;;;;;7.22;1.90;;;30.20;50.20;;;;;;5055142;28;20017;-79
2021/10/03 11:50:30;;;;;;;6.55;1.80;;;31.80;46.10;;;;;;5054972;28;20520;-79
2021/10/03 11:53:10;;;;;;;8.38;2.08;;;29.90;47.30;;;;;;5054826;28;20546;-78
2021/10/03 11:55:38;;;;;;;7.50;1.95;;;31.20;45.70;;;;;;5054865;28;20116;-78
2021/10/03 11:58:06;;;;;;;9.27;2.05;;;30.50;46.20;;;;;;5054832;28;20033;-78
2021/10/03 12:00:33;;;;;;;8.40;2.05;;;31.70;44.70;;;;;;5054567;28;20028;-78
2021/10/03 12:03:08;;;;;;;4.38;1.75;;;30.70;45.30;;;;;;5054674;28;20025;-78
2021/10/03 12:05:34;;;;;;;6.22;1.88;;;32.80;43.00;;;;;;5055121;28;20028;-79
2021/10/03 12:08:02;;;;;;;6.45;2.13;;;31.70;41.10;;;;;;5054680;28;20045;-78
2021/10/03 12:10:38;;;;;;;8.68;2.30;;;34.10;41.10;;;;;;5053449;28;20027;-79
2021/10/03 12:13:30;;;;;;;7.88;1.98;;;35.10;41.90;;;;;;5054479;28;20021;-78
2021/10/03 12:16:04;;;;;;;7.10;2.10;;;35.70;40.20;;;;;;5054652;28;20071;-79
2021/10/03 12:18:31;;;;;;;6.00;2.03;;;34.40;39.50;;;;;;5053081;28;20040;-78
2021/10/03 12:21:00;;;;;;;9.65;2.25;;;33.30;39.60;;;;;;5052840;28;20465;-78
2021/10/03 12:23:47;;;;;;;6.15;2.00;;;34.70;40.00;;;;;;5052951;28;20021;-80
2021/10/03 12:26:20;;;;;;;8.02;2.20;;;36.00;37.90;;;;;;5054395;28;20021;-79
2021/10/03 12:29:09;;;;;;;5.20;1.58;;;32.80;39.50;;;;;;5052909;28;20444;-78
2021/10/03 12:31:41;;;;;;;11.68;1.48;;;29.90;41.70;;;;;;5052387;28;20057;-78
2021/10/03 12:34:16;;;;;;;7.70;1.50;;;25.80;47.70;;;;;;5054050;28;20100;-76
2021/10/03 12:36:54;;;;;;;7.55;1.48;;;24.20;51.20;;;;;;5054006;28;20083;-77
2021/10/03 12:39:25;;;;;;;5.55;1.35;;;24.30;52.00;;;;;;5053827;28;20501;-79
2021/10/03 12:41:53;;;;;;;7.18;1.60;;;24.40;51.50;;;;;;5053971;28;20108;-79
2021/10/03 12:44:24;;;;;;;5.68;1.63;;;24.90;50.20;;;;;;5053880;28;20043;-81
2021/10/03 12:46:50;;;;;;;5.95;1.60;;;30.20;46.70;;;;;;5053975;28;20024;-80
2021/10/03 12:49:15;;;;;;;6.70;1.60;;;27.90;46.00;;;;;;5052489;28;20017;-80
2021/10/03 12:51:41;;;;;;;8.63;1.88;;;28.00;46.80;;;;;;5054133;28;20115;-80
2021/10/03 12:54:07;;;;;;;7.00;1.80;;;31.10;42.80;;;;;;5053726;28;20025;-81
2021/10/03 12:56:32;;;;;;;5.28;1.90;;;31.40;41.80;;;;;;5052398;28;20382;-80
2021/10/03 12:58:58;;;;;;;9.52;2.05;;;34.10;42.10;;;;;;5053617;28;20025;-80
2021/10/03 13:01:24;;;;;;;7.05;1.90;;;34.00;40.60;;;;;;5053561;28;20051;-80